sensor_id;sensor_type;location;lat;lon;timestamp;temperature;humidity
10905;DHT22;5505;51.450;9.254;2023-04-03T00:01:42;1.60;99.90
10905;DHT22;5505;51.450;9.254;2023-04-03T00:04:29;1.60;99.90
10905;DHT22;5505;51.450;9.254;2023-04-03T00:07:16;2.30;99.90
10905;DHT22;5505;51.450;9.254;2023-04-03T00:10:03;1.50;99.90
10905;DHT22;5505;51.450;9.254;2023-04-03T00:12:50;1.40;99.90
10905;DHT22;5505;51.450;9.254;2023-04-03T00:15:37;1.20;99.90
10905;DHT22;5505;51.450;9.254;2023-04-03T00:18:26;1.10;99.90
10905;DHT22;5505;51.450;9.254;2023-04-03T00:21:13;1.00;99.90
10905;DHT22;5505;51.450;9.254;2023-04-03T00:24:01;1.00;99.90
10905;DHT22;5505;51.450;9.254;2023-04-03T00:26:48;0.90;99.90
10905;DHT22;5505;51.450;9.254;2023-04-03T00:29:35;1.00;99.90
10905;DHT22;5505;51.450;9.254;2023-04-03T00:32:21;0.90;99.90
10905;DHT22;5505;51.450;9.254;2023-04-03T00:35:10;0.80;99.90
10905;DHT22;5505;51.450;9.254;2023-04-03T00:37:57;0.90;99.90
10905;DHT22;5505;51.450;9.254;2023-04-03T00:40:47;1.00;99.90
10905;DHT22;5505;51.450;9.254;2023-04-03T00:43:33;1.10;99.90
10905;DHT22;5505;51.450;9.254;2023-04-03T00:46:20;1.00;99.90
10905;DHT22;5505;51.450;9.254;2023-04-03T00:49:07;1.00;99.90
10905;DHT22;5505;51.450;9.254;2023-04-03T00:51:56;1.00;99.90
10905;DHT22;5505;51.450;9.254;2023-04-03T00:54:46;1.00;99.90
10905;DHT22;5505;51.450;9.254;2023-04-03T00:57:34;1.00;99.90
10905;DHT22;5505;51.450;9.254;2023-04-03T01:00:22;1.00;99.90
10905;DHT22;5505;51.450;9.254;2023-04-03T01:03:09;0.90;99.90
10905;DHT22;5505;51.450;9.254;2023-04-03T01:05:56;0.90;99.90
10905;DHT22;5505;51.450;9.254;2023-04-03T01:08:44;0.80;99.90
10905;DHT22;5505;51.450;9.254;2023-04-03T01:11:32;0.70;99.90
10905;DHT22;5505;51.450;9.254;2023-04-03T01:14:19;0.70;99.90
10905;DHT22;5505;51.450;9.254;2023-04-03T01:17:28;0.60;99.90
10905;DHT22;5505;51.450;9.254;2023-04-03T01:20:42;0.40;99.90
10905;DHT22;5505;51.450;9.254;2023-04-03T01:23:47;0.30;99.90
10905;DHT22;5505;51.450;9.254;2023-04-03T01:26:36;0.20;99.90
10905;DHT22;5505;51.450;9.254;2023-04-03T01:29:23;0.10;99.90
10905;DHT22;5505;51.450;9.254;2023-04-03T01:32:12;0.10;99.90
10905;DHT22;5505;51.450;9.254;2023-04-03T01:34:58;0.00;99.90
10905;DHT22;5505;51.450;9.254;2023-04-03T01:37:45;0.00;99.90
10905;DHT22;5505;51.450;9.254;2023-04-03T01:40:32;0.00;99.90
10905;DHT22;5505;51.450;9.254;2023-04-03T01:43:19;0.00;99.90
10905;DHT22;5505;51.450;9.254;2023-04-03T01:46:06;-0.10;99.90
10905;DHT22;5505;51.450;9.254;2023-04-03T01:48:54;0.00;99.90
10905;DHT22;5505;51.450;9.254;2023-04-03T01:51:41;-0.10;99.90
10905;DHT22;5505;51.450;9.254;2023-04-03T01:54:28;-0.10;99.90
10905;DHT22;5505;51.450;9.254;2023-04-03T01:57:14;-0.10;99.90
10905;DHT22;5505;51.450;9.254;2023-04-03T02:00:01;-0.10;99.90
10905;DHT22;5505;51.450;9.254;2023-04-03T02:02:49;1.90;99.90
10905;DHT22;5505;51.450;9.254;2023-04-03T02:05:37;0.00;99.90
10905;DHT22;5505;51.450;9.254;2023-04-03T02:08:24;0.00;99.90
10905;DHT22;5505;51.450;9.254;2023-04-03T02:11:11;0.00;99.90
10905;DHT22;5505;51.450;9.254;2023-04-03T02:13:58;0.00;99.90
10905;DHT22;5505;51.450;9.254;2023-04-03T02:16:45;0.00;99.90
10905;DHT22;5505;51.450;9.254;2023-04-03T02:19:31;0.00;99.90
10905;DHT22;5505;51.450;9.254;2023-04-03T02:22:20;0.00;99.90
10905;DHT22;5505;51.450;9.254;2023-04-03T02:25:07;-0.20;99.90
10905;DHT22;5505;51.450;9.254;2023-04-03T02:27:55;-0.30;99.90
10905;DHT22;5505;51.450;9.254;2023-04-03T02:30:41;-0.50;99.90
10905;DHT22;5505;51.450;9.254;2023-04-03T02:33:28;-0.50;99.90
10905;DHT22;5505;51.450;9.254;2023-04-03T02:36:16;-0.60;99.90
10905;DHT22;5505;51.450;9.254;2023-04-03T02:39:04;-0.60;99.90
10905;DHT22;5505;51.450;9.254;2023-04-03T02:41:51;-0.70;99.90
10905;DHT22;5505;51.450;9.254;2023-04-03T02:44:38;-0.70;99.90
10905;DHT22;5505;51.450;9.254;2023-04-03T02:47:24;-0.80;99.90
10905;DHT22;5505;51.450;9.254;2023-04-03T02:50:11;-0.80;99.90
10905;DHT22;5505;51.450;9.254;2023-04-03T02:52:58;-0.80;99.90
10905;DHT22;5505;51.450;9.254;2023-04-03T02:55:46;-0.80;99.90
10905;DHT22;5505;51.450;9.254;2023-04-03T02:58:33;-0.80;99.90
10905;DHT22;5505;51.450;9.254;2023-04-03T03:01:20;0.90;99.90
10905;DHT22;5505;51.450;9.254;2023-04-03T03:04:06;-1.00;99.90
10905;DHT22;5505;51.450;9.254;2023-04-03T03:06:53;-1.00;99.90
10905;DHT22;5505;51.450;9.254;2023-04-03T03:09:40;-1.10;99.90
10905;DHT22;5505;51.450;9.254;2023-04-03T03:12:28;-1.10;99.90
10905;DHT22;5505;51.450;9.254;2023-04-03T03:15:15;-1.10;99.90
10905;DHT22;5505;51.450;9.254;2023-04-03T03:18:02;-1.20;99.90
10905;DHT22;5505;51.450;9.254;2023-04-03T03:20:51;-1.20;99.90
10905;DHT22;5505;51.450;9.254;2023-04-03T03:23:38;-1.20;99.90
10905;DHT22;5505;51.450;9.254;2023-04-03T03:26:26;-1.30;99.90
10905;DHT22;5505;51.450;9.254;2023-04-03T03:29:14;-1.30;99.90
10905;DHT22;5505;51.450;9.254;2023-04-03T03:32:01;-1.40;99.90
10905;DHT22;5505;51.450;9.254;2023-04-03T03:34:48;-1.40;99.90
10905;DHT22;5505;51.450;9.254;2023-04-03T03:37:35;-1.40;99.90
10905;DHT22;5505;51.450;9.254;2023-04-03T03:40:22;-1.40;99.90
10905;DHT22;5505;51.450;9.254;2023-04-03T03:43:08;-1.30;99.90
10905;DHT22;5505;51.450;9.254;2023-04-03T03:45:56;-1.30;99.90
10905;DHT22;5505;51.450;9.254;2023-04-03T03:48:43;-1.20;99.90
10905;DHT22;5505;51.450;9.254;2023-04-03T03:51:30;-1.20;99.90
10905;DHT22;5505;51.450;9.254;2023-04-03T03:54:17;-1.30;99.90
10905;DHT22;5505;51.450;9.254;2023-04-03T03:57:04;-1.30;99.90
10905;DHT22;5505;51.450;9.254;2023-04-03T03:59:51;-1.30;99.90
10905;DHT22;5505;51.450;9.254;2023-04-03T04:02:39;-1.20;99.90
10905;DHT22;5505;51.450;9.254;2023-04-03T04:05:26;-1.20;99.90
10905;DHT22;5505;51.450;9.254;2023-04-03T04:08:13;-1.10;99.90
10905;DHT22;5505;51.450;9.254;2023-04-03T04:11:00;-1.10;99.90
10905;DHT22;5505;51.450;9.254;2023-04-03T04:13:47;-1.10;99.90
10905;DHT22;5505;51.450;9.254;2023-04-03T04:16:33;-1.00;99.90
10905;DHT22;5505;51.450;9.254;2023-04-03T04:19:22;-1.00;99.90
10905;DHT22;5505;51.450;9.254;2023-04-03T04:22:08;-0.90;99.90
10905;DHT22;5505;51.450;9.254;2023-04-03T04:24:55;-1.00;99.90
10905;DHT22;5505;51.450;9.254;2023-04-03T04:27:42;-1.10;99.90
10905;DHT22;5505;51.450;9.254;2023-04-03T04:30:29;-1.20;99.90
10905;DHT22;5505;51.450;9.254;2023-04-03T04:33:15;-1.30;99.90
10905;DHT22;5505;51.450;9.254;2023-04-03T04:36:04;-1.30;99.90
10905;DHT22;5505;51.450;9.254;2023-04-03T04:38:51;-1.30;99.90
10905;DHT22;5505;51.450;9.254;2023-04-03T04:41:39;-1.40;99.90
10905;DHT22;5505;51.450;9.254;2023-04-03T04:44:25;-1.40;99.90
10905;DHT22;5505;51.450;9.254;2023-04-03T04:47:12;-1.50;99.90
10905;DHT22;5505;51.450;9.254;2023-04-03T04:49:59;-1.60;99.90
10905;DHT22;5505;51.450;9.254;2023-04-03T04:52:47;-1.60;99.90
10905;DHT22;5505;51.450;9.254;2023-04-03T04:55:34;-1.70;99.90
10905;DHT22;5505;51.450;9.254;2023-04-03T04:58:21;-1.70;99.90
10905;DHT22;5505;51.450;9.254;2023-04-03T05:01:09;-1.70;99.90
10905;DHT22;5505;51.450;9.254;2023-04-03T05:03:56;-1.70;99.90
10905;DHT22;5505;51.450;9.254;2023-04-03T05:06:43;-1.60;99.90
10905;DHT22;5505;51.450;9.254;2023-04-03T05:09:31;-1.50;99.90
10905;DHT22;5505;51.450;9.254;2023-04-03T05:12:18;-1.50;99.90
10905;DHT22;5505;51.450;9.254;2023-04-03T05:15:06;-1.40;99.90
10905;DHT22;5505;51.450;9.254;2023-04-03T05:17:53;-1.20;99.90
10905;DHT22;5505;51.450;9.254;2023-04-03T05:20:40;-1.10;99.90
10905;DHT22;5505;51.450;9.254;2023-04-03T05:23:28;0.30;99.90
10905;DHT22;5505;51.450;9.254;2023-04-03T05:26:16;-0.90;99.90
10905;DHT22;5505;51.450;9.254;2023-04-03T05:29:03;-0.80;99.90
10905;DHT22;5505;51.450;9.254;2023-04-03T05:31:50;-0.60;99.90
10905;DHT22;5505;51.450;9.254;2023-04-03T05:34:37;-0.40;99.90
10905;DHT22;5505;51.450;9.254;2023-04-03T05:37:24;-0.30;99.90
10905;DHT22;5505;51.450;9.254;2023-04-03T05:40:11;-0.30;99.90
10905;DHT22;5505;51.450;9.254;2023-04-03T05:42:59;-0.30;99.90
10905;DHT22;5505;51.450;9.254;2023-04-03T05:45:47;-0.20;99.90
10905;DHT22;5505;51.450;9.254;2023-04-03T05:48:34;-0.20;99.90
10905;DHT22;5505;51.450;9.254;2023-04-03T05:51:23;-0.30;99.90
10905;DHT22;5505;51.450;9.254;2023-04-03T05:54:15;-0.20;99.90
10905;DHT22;5505;51.450;9.254;2023-04-03T05:57:02;-0.10;99.90
10905;DHT22;5505;51.450;9.254;2023-04-03T05:59:51;0.00;99.90
10905;DHT22;5505;51.450;9.254;2023-04-03T06:02:37;0.10;99.90
10905;DHT22;5505;51.450;9.254;2023-04-03T06:05:24;0.10;99.90
10905;DHT22;5505;51.450;9.254;2023-04-03T06:08:11;1.00;99.90
10905;DHT22;5505;51.450;9.254;2023-04-03T06:10:58;0.10;99.90
10905;DHT22;5505;51.450;9.254;2023-04-03T06:13:45;0.20;99.90
10905;DHT22;5505;51.450;9.254;2023-04-03T06:16:34;0.30;99.90
10905;DHT22;5505;51.450;9.254;2023-04-03T06:19:21;0.30;99.90
10905;DHT22;5505;51.450;9.254;2023-04-03T06:22:08;0.30;99.90
10905;DHT22;5505;51.450;9.254;2023-04-03T06:24:55;0.40;99.90
10905;DHT22;5505;51.450;9.254;2023-04-03T06:27:42;2.20;99.90
10905;DHT22;5505;51.450;9.254;2023-04-03T06:30:28;0.50;99.90
10905;DHT22;5505;51.450;9.254;2023-04-03T06:33:17;0.60;99.90
10905;DHT22;5505;51.450;9.254;2023-04-03T06:36:05;0.60;99.90
10905;DHT22;5505;51.450;9.254;2023-04-03T06:38:52;0.60;99.90
10905;DHT22;5505;51.450;9.254;2023-04-03T06:41:38;0.60;99.90
10905;DHT22;5505;51.450;9.254;2023-04-03T06:44:25;0.70;99.90
10905;DHT22;5505;51.450;9.254;2023-04-03T06:47:13;0.60;99.90
10905;DHT22;5505;51.450;9.254;2023-04-03T06:50:02;0.60;99.90
10905;DHT22;5505;51.450;9.254;2023-04-03T06:52:48;0.60;99.90
10905;DHT22;5505;51.450;9.254;2023-04-03T06:55:36;0.60;99.90
10905;DHT22;5505;51.450;9.254;2023-04-03T06:58:22;0.60;99.90
10905;DHT22;5505;51.450;9.254;2023-04-03T07:01:09;0.80;99.90
10905;DHT22;5505;51.450;9.254;2023-04-03T07:03:57;0.80;99.90
10905;DHT22;5505;51.450;9.254;2023-04-03T07:06:46;1.10;99.90
10905;DHT22;5505;51.450;9.254;2023-04-03T07:09:32;3.10;99.90
10905;DHT22;5505;51.450;9.254;2023-04-03T07:12:19;2.80;99.90
10905;DHT22;5505;51.450;9.254;2023-04-03T07:15:10;1.20;99.90
10905;DHT22;5505;51.450;9.254;2023-04-03T07:17:57;1.40;99.90
10905;DHT22;5505;51.450;9.254;2023-04-03T07:20:44;3.00;99.90
10905;DHT22;5505;51.450;9.254;2023-04-03T07:23:32;1.70;99.90
10905;DHT22;5505;51.450;9.254;2023-04-03T07:26:19;1.80;99.90
10905;DHT22;5505;51.450;9.254;2023-04-03T07:29:07;1.80;99.90
10905;DHT22;5505;51.450;9.254;2023-04-03T07:31:54;1.70;99.90
10905;DHT22;5505;51.450;9.254;2023-04-03T07:34:42;1.80;99.90
10905;DHT22;5505;51.450;9.254;2023-04-03T07:37:28;2.10;99.90
10905;DHT22;5505;51.450;9.254;2023-04-03T07:40:17;2.20;99.90
10905;DHT22;5505;51.450;9.254;2023-04-03T07:43:04;2.20;99.90
10905;DHT22;5505;51.450;9.254;2023-04-03T07:45:51;2.50;99.90
10905;DHT22;5505;51.450;9.254;2023-04-03T07:48:39;2.40;99.90
10905;DHT22;5505;51.450;9.254;2023-04-03T07:51:26;2.50;99.90
10905;DHT22;5505;51.450;9.254;2023-04-03T07:54:13;2.70;99.90
10905;DHT22;5505;51.450;9.254;2023-04-03T07:57:02;2.90;99.90
10905;DHT22;5505;51.450;9.254;2023-04-03T07:59:48;3.20;99.90
10905;DHT22;5505;51.450;9.254;2023-04-03T08:02:35;3.10;99.90
10905;DHT22;5505;51.450;9.254;2023-04-03T08:05:22;3.10;99.90
10905;DHT22;5505;51.450;9.254;2023-04-03T08:08:11;2.90;99.90
10905;DHT22;5505;51.450;9.254;2023-04-03T08:10:59;2.90;99.90
10905;DHT22;5505;51.450;9.254;2023-04-03T08:13:49;4.50;99.90
10905;DHT22;5505;51.450;9.254;2023-04-03T08:16:36;3.00;99.90
10905;DHT22;5505;51.450;9.254;2023-04-03T08:19:22;3.30;99.90
10905;DHT22;5505;51.450;9.254;2023-04-03T08:22:09;3.20;99.90
10905;DHT22;5505;51.450;9.254;2023-04-03T08:24:56;3.00;99.90
10905;DHT22;5505;51.450;9.254;2023-04-03T08:27:43;3.10;99.90
10905;DHT22;5505;51.450;9.254;2023-04-03T08:30:31;3.10;99.90
10905;DHT22;5505;51.450;9.254;2023-04-03T08:33:18;3.20;99.90
10905;DHT22;5505;51.450;9.254;2023-04-03T08:36:06;3.30;99.90
10905;DHT22;5505;51.450;9.254;2023-04-03T08:38:54;3.60;99.90
10905;DHT22;5505;51.450;9.254;2023-04-03T08:41:43;3.60;99.90
10905;DHT22;5505;51.450;9.254;2023-04-03T08:44:38;3.60;99.90
10905;DHT22;5505;51.450;9.254;2023-04-03T08:47:33;3.50;99.90
10905;DHT22;5505;51.450;9.254;2023-04-03T08:50:28;3.60;99.90
10905;DHT22;5505;51.450;9.254;2023-04-03T08:53:17;3.70;99.90
10905;DHT22;5505;51.450;9.254;2023-04-03T08:56:08;3.70;99.90
10905;DHT22;5505;51.450;9.254;2023-04-03T08:58:58;3.90;99.90
10905;DHT22;5505;51.450;9.254;2023-04-03T09:01:46;4.10;99.90
10905;DHT22;5505;51.450;9.254;2023-04-03T09:04:36;4.00;99.90
10905;DHT22;5505;51.450;9.254;2023-04-03T09:07:32;4.00;99.90
10905;DHT22;5505;51.450;9.254;2023-04-03T09:10:24;4.00;99.90
10905;DHT22;5505;51.450;9.254;2023-04-03T09:13:22;4.00;99.90
10905;DHT22;5505;51.450;9.254;2023-04-03T09:16:21;4.00;99.90
10905;DHT22;5505;51.450;9.254;2023-04-03T09:19:18;4.70;99.90
10905;DHT22;5505;51.450;9.254;2023-04-03T09:22:17;3.80;99.90
10905;DHT22;5505;51.450;9.254;2023-04-03T09:25:12;4.10;99.90
10905;DHT22;5505;51.450;9.254;2023-04-03T09:28:00;4.00;99.90
10905;DHT22;5505;51.450;9.254;2023-04-03T09:30:48;4.10;99.90
10905;DHT22;5505;51.450;9.254;2023-04-03T09:33:35;4.20;99.90
10905;DHT22;5505;51.450;9.254;2023-04-03T09:36:42;4.40;99.90
10905;DHT22;5505;51.450;9.254;2023-04-03T09:39:30;4.70;99.90
10905;DHT22;5505;51.450;9.254;2023-04-03T09:42:19;4.60;99.90
10905;DHT22;5505;51.450;9.254;2023-04-03T09:45:21;4.50;99.90
10905;DHT22;5505;51.450;9.254;2023-04-03T09:48:16;4.40;99.90
10905;DHT22;5505;51.450;9.254;2023-04-03T09:51:03;3.90;99.90
10905;DHT22;5505;51.450;9.254;2023-04-03T09:53:50;3.90;99.90
10905;DHT22;5505;51.450;9.254;2023-04-03T09:56:38;3.70;99.90
10905;DHT22;5505;51.450;9.254;2023-04-03T09:59:25;3.70;99.90
10905;DHT22;5505;51.450;9.254;2023-04-03T10:02:30;3.50;99.90
10905;DHT22;5505;51.450;9.254;2023-04-03T10:05:32;3.30;99.90
10905;DHT22;5505;51.450;9.254;2023-04-03T10:08:21;3.40;99.90
10905;DHT22;5505;51.450;9.254;2023-04-03T10:11:12;3.60;99.90
10905;DHT22;5505;51.450;9.254;2023-04-03T10:14:02;3.80;99.90
10905;DHT22;5505;51.450;9.254;2023-04-03T10:16:56;4.10;99.90
10905;DHT22;5505;51.450;9.254;2023-04-03T10:19:48;4.20;99.90
10905;DHT22;5505;51.450;9.254;2023-04-03T10:23:00;4.50;99.90
10905;DHT22;5505;51.450;9.254;2023-04-03T10:25:59;5.90;99.90
10905;DHT22;5505;51.450;9.254;2023-04-03T10:28:55;4.90;99.90
10905;DHT22;5505;51.450;9.254;2023-04-03T10:31:48;4.60;99.90
10905;DHT22;5505;51.450;9.254;2023-04-03T10:34:40;5.00;99.90
10905;DHT22;5505;51.450;9.254;2023-04-03T10:37:30;5.20;99.90
10905;DHT22;5505;51.450;9.254;2023-04-03T10:40:30;5.00;99.90
10905;DHT22;5505;51.450;9.254;2023-04-03T10:43:27;5.10;99.90
10905;DHT22;5505;51.450;9.254;2023-04-03T10:46:20;5.30;99.90
10905;DHT22;5505;51.450;9.254;2023-04-03T10:49:22;4.50;99.90
10905;DHT22;5505;51.450;9.254;2023-04-03T10:52:19;4.70;99.90
10905;DHT22;5505;51.450;9.254;2023-04-03T10:55:20;4.70;99.90
10905;DHT22;5505;51.450;9.254;2023-04-03T10:58:18;5.00;99.90
10905;DHT22;5505;51.450;9.254;2023-04-03T11:01:11;5.20;99.90
10905;DHT22;5505;51.450;9.254;2023-04-03T11:04:01;8.50;99.90
10905;DHT22;5505;51.450;9.254;2023-04-03T11:06:53;6.80;99.90
10905;DHT22;5505;51.450;9.254;2023-04-03T11:09:44;5.30;99.90
10905;DHT22;5505;51.450;9.254;2023-04-03T11:12:38;7.40;99.90
10905;DHT22;5505;51.450;9.254;2023-04-03T11:15:30;5.70;99.90
10905;DHT22;5505;51.450;9.254;2023-04-03T11:18:22;6.20;99.90
10905;DHT22;5505;51.450;9.254;2023-04-03T11:21:16;5.70;99.90
10905;DHT22;5505;51.450;9.254;2023-04-03T11:24:06;5.70;99.90
10905;DHT22;5505;51.450;9.254;2023-04-03T11:27:00;5.80;99.90
10905;DHT22;5505;51.450;9.254;2023-04-03T11:29:49;5.50;99.90
10905;DHT22;5505;51.450;9.254;2023-04-03T11:32:56;5.50;99.90
10905;DHT22;5505;51.450;9.254;2023-04-03T11:35:48;5.50;99.90
10905;DHT22;5505;51.450;9.254;2023-04-03T11:38:41;5.50;99.90
10905;DHT22;5505;51.450;9.254;2023-04-03T11:41:30;5.80;99.90
10905;DHT22;5505;51.450;9.254;2023-04-03T11:44:34;4.90;99.90
10905;DHT22;5505;51.450;9.254;2023-04-03T11:47:43;4.90;99.90
10905;DHT22;5505;51.450;9.254;2023-04-03T11:50:40;4.60;99.90
10905;DHT22;5505;51.450;9.254;2023-04-03T11:53:33;4.40;99.90
10905;DHT22;5505;51.450;9.254;2023-04-03T11:56:29;4.30;99.90
10905;DHT22;5505;51.450;9.254;2023-04-03T11:59:22;4.30;99.90
10905;DHT22;5505;51.450;9.254;2023-04-03T12:02:35;4.70;99.90
10905;DHT22;5505;51.450;9.254;2023-04-03T12:05:27;5.00;99.90
10905;DHT22;5505;51.450;9.254;2023-04-03T12:08:26;5.30;99.90
10905;DHT22;5505;51.450;9.254;2023-04-03T12:11:24;7.20;99.90
10905;DHT22;5505;51.450;9.254;2023-04-03T12:14:16;5.80;99.90
10905;DHT22;5505;51.450;9.254;2023-04-03T12:17:12;5.90;99.90
10905;DHT22;5505;51.450;9.254;2023-04-03T12:23:30;5.90;99.90
10905;DHT22;5505;51.450;9.254;2023-04-03T12:26:22;6.10;99.90
10905;DHT22;5505;51.450;9.254;2023-04-03T12:29:17;6.10;99.90
10905;DHT22;5505;51.450;9.254;2023-04-03T12:32:11;5.90;99.90
10905;DHT22;5505;51.450;9.254;2023-04-03T12:35:10;5.60;99.90
10905;DHT22;5505;51.450;9.254;2023-04-03T12:41:36;5.90;99.90
10905;DHT22;5505;51.450;9.254;2023-04-03T12:44:43;5.80;99.90
10905;DHT22;5505;51.450;9.254;2023-04-03T12:47:34;5.30;99.90
10905;DHT22;5505;51.450;9.254;2023-04-03T12:50:24;5.10;99.90
10905;DHT22;5505;51.450;9.254;2023-04-03T12:53:13;5.00;99.90
10905;DHT22;5505;51.450;9.254;2023-04-03T12:56:19;5.00;99.90
10905;DHT22;5505;51.450;9.254;2023-04-03T12:59:19;5.10;99.90
10905;DHT22;5505;51.450;9.254;2023-04-03T13:02:23;5.50;99.90
10905;DHT22;5505;51.450;9.254;2023-04-03T13:05:15;5.30;99.90
10905;DHT22;5505;51.450;9.254;2023-04-03T13:08:04;5.20;99.90
10905;DHT22;5505;51.450;9.254;2023-04-03T13:10:55;5.00;99.90
10905;DHT22;5505;51.450;9.254;2023-04-03T13:13:54;6.00;99.90
10905;DHT22;5505;51.450;9.254;2023-04-03T13:16:53;4.90;99.90
10905;DHT22;5505;51.450;9.254;2023-04-03T13:19:40;5.20;99.90
10905;DHT22;5505;51.450;9.254;2023-04-03T13:22:31;5.40;99.90
10905;DHT22;5505;51.450;9.254;2023-04-03T13:25:25;6.70;99.90
10905;DHT22;5505;51.450;9.254;2023-04-03T13:28:16;6.80;99.90
10905;DHT22;5505;51.450;9.254;2023-04-03T13:31:08;5.40;99.90
10905;DHT22;5505;51.450;9.254;2023-04-03T13:34:03;4.90;99.90
10905;DHT22;5505;51.450;9.254;2023-04-03T13:36:56;4.70;99.90
10905;DHT22;5505;51.450;9.254;2023-04-03T13:39:43;5.00;99.90
10905;DHT22;5505;51.450;9.254;2023-04-03T13:42:32;5.20;99.90
10905;DHT22;5505;51.450;9.254;2023-04-03T13:45:21;6.40;99.90
10905;DHT22;5505;51.450;9.254;2023-04-03T13:48:16;5.30;99.90
10905;DHT22;5505;51.450;9.254;2023-04-03T13:51:16;7.10;99.90
10905;DHT22;5505;51.450;9.254;2023-04-03T13:54:16;5.20;99.90
10905;DHT22;5505;51.450;9.254;2023-04-03T13:57:12;6.70;99.90
10905;DHT22;5505;51.450;9.254;2023-04-03T13:59:59;6.70;99.90
10905;DHT22;5505;51.450;9.254;2023-04-03T14:02:47;5.80;99.90
10905;DHT22;5505;51.450;9.254;2023-04-03T14:05:34;5.30;99.90
10905;DHT22;5505;51.450;9.254;2023-04-03T14:08:23;5.70;99.90
10905;DHT22;5505;51.450;9.254;2023-04-03T14:11:13;5.20;99.90
10905;DHT22;5505;51.450;9.254;2023-04-03T14:14:05;5.20;99.90
10905;DHT22;5505;51.450;9.254;2023-04-03T14:16:57;5.30;99.90
10905;DHT22;5505;51.450;9.254;2023-04-03T14:19:45;5.40;99.90
10905;DHT22;5505;51.450;9.254;2023-04-03T14:22:33;5.40;99.90
10905;DHT22;5505;51.450;9.254;2023-04-03T14:25:22;5.60;99.90
10905;DHT22;5505;51.450;9.254;2023-04-03T14:28:15;5.60;99.90
10905;DHT22;5505;51.450;9.254;2023-04-03T14:31:02;5.40;99.90
10905;DHT22;5505;51.450;9.254;2023-04-03T14:33:49;5.30;99.90
10905;DHT22;5505;51.450;9.254;2023-04-03T14:36:36;5.20;99.90
10905;DHT22;5505;51.450;9.254;2023-04-03T14:39:24;5.20;99.90
10905;DHT22;5505;51.450;9.254;2023-04-03T14:42:15;5.20;99.90
10905;DHT22;5505;51.450;9.254;2023-04-03T14:45:04;5.40;99.90
10905;DHT22;5505;51.450;9.254;2023-04-03T14:47:53;5.60;99.90
10905;DHT22;5505;51.450;9.254;2023-04-03T14:50:41;5.70;99.90
10905;DHT22;5505;51.450;9.254;2023-04-03T14:53:28;5.80;99.90
10905;DHT22;5505;51.450;9.254;2023-04-03T14:56:17;5.70;99.90
10905;DHT22;5505;51.450;9.254;2023-04-03T14:59:10;5.50;99.90
10905;DHT22;5505;51.450;9.254;2023-04-03T15:01:58;6.40;99.90
10905;DHT22;5505;51.450;9.254;2023-04-03T15:04:45;5.20;99.90
10905;DHT22;5505;51.450;9.254;2023-04-03T15:07:34;4.90;99.90
10905;DHT22;5505;51.450;9.254;2023-04-03T15:10:22;4.80;99.90
10905;DHT22;5505;51.450;9.254;2023-04-03T15:13:12;5.00;99.90
10905;DHT22;5505;51.450;9.254;2023-04-03T15:16:00;5.00;99.90
10905;DHT22;5505;51.450;9.254;2023-04-03T15:18:47;5.20;99.90
10905;DHT22;5505;51.450;9.254;2023-04-03T15:21:35;5.30;99.90
10905;DHT22;5505;51.450;9.254;2023-04-03T15:24:22;5.20;99.90
10905;DHT22;5505;51.450;9.254;2023-04-03T15:27:10;5.20;99.90
10905;DHT22;5505;51.450;9.254;2023-04-03T15:29:58;5.00;99.90
10905;DHT22;5505;51.450;9.254;2023-04-03T15:32:47;5.20;99.90
10905;DHT22;5505;51.450;9.254;2023-04-03T15:35:34;5.10;99.90
10905;DHT22;5505;51.450;9.254;2023-04-03T15:38:21;5.00;99.90
10905;DHT22;5505;51.450;9.254;2023-04-03T15:41:07;5.70;99.90
10905;DHT22;5505;51.450;9.254;2023-04-03T15:43:54;4.70;99.90
10905;DHT22;5505;51.450;9.254;2023-04-03T15:46:41;4.70;99.90
10905;DHT22;5505;51.450;9.254;2023-04-03T15:49:30;4.70;99.90
10905;DHT22;5505;51.450;9.254;2023-04-03T15:52:17;4.70;99.90
10905;DHT22;5505;51.450;9.254;2023-04-03T15:55:04;4.80;99.90
10905;DHT22;5505;51.450;9.254;2023-04-03T15:57:52;4.90;99.90
10905;DHT22;5505;51.450;9.254;2023-04-03T16:00:39;4.90;99.90
10905;DHT22;5505;51.450;9.254;2023-04-03T16:03:26;5.10;99.90
10905;DHT22;5505;51.450;9.254;2023-04-03T16:06:15;5.00;99.90
10905;DHT22;5505;51.450;9.254;2023-04-03T16:09:04;4.90;99.90
10905;DHT22;5505;51.450;9.254;2023-04-03T16:11:51;4.50;99.90
10905;DHT22;5505;51.450;9.254;2023-04-03T16:14:37;4.50;99.90
10905;DHT22;5505;51.450;9.254;2023-04-03T16:17:25;4.50;99.90
10905;DHT22;5505;51.450;9.254;2023-04-03T16:20:13;4.60;99.90
10905;DHT22;5505;51.450;9.254;2023-04-03T16:23:01;4.70;99.90
10905;DHT22;5505;51.450;9.254;2023-04-03T16:25:48;4.80;99.90
10905;DHT22;5505;51.450;9.254;2023-04-03T16:28:35;4.60;99.90
10905;DHT22;5505;51.450;9.254;2023-04-03T16:31:23;4.30;99.90
10905;DHT22;5505;51.450;9.254;2023-04-03T16:34:10;4.30;99.90
10905;DHT22;5505;51.450;9.254;2023-04-03T16:36:57;4.20;99.90
10905;DHT22;5505;51.450;9.254;2023-04-03T16:39:46;4.20;99.90
10905;DHT22;5505;51.450;9.254;2023-04-03T16:42:33;4.20;99.90
10905;DHT22;5505;51.450;9.254;2023-04-03T16:45:20;4.10;99.90
10905;DHT22;5505;51.450;9.254;2023-04-03T16:48:07;4.20;99.90
10905;DHT22;5505;51.450;9.254;2023-04-03T16:50:54;4.20;99.90
10905;DHT22;5505;51.450;9.254;2023-04-03T16:53:41;4.40;99.90
10905;DHT22;5505;51.450;9.254;2023-04-03T16:56:29;4.50;99.90
10905;DHT22;5505;51.450;9.254;2023-04-03T16:59:17;5.70;99.90
10905;DHT22;5505;51.450;9.254;2023-04-03T17:02:04;4.50;99.90
10905;DHT22;5505;51.450;9.254;2023-04-03T17:04:51;4.50;99.90
10905;DHT22;5505;51.450;9.254;2023-04-03T17:07:38;5.80;99.90
10905;DHT22;5505;51.450;9.254;2023-04-03T17:10:25;4.10;99.90
10905;DHT22;5505;51.450;9.254;2023-04-03T17:13:13;4.00;99.90
10905;DHT22;5505;51.450;9.254;2023-04-03T17:16:01;3.80;99.90
10905;DHT22;5505;51.450;9.254;2023-04-03T17:18:50;3.80;99.90
10905;DHT22;5505;51.450;9.254;2023-04-03T17:21:37;3.80;99.90
10905;DHT22;5505;51.450;9.254;2023-04-03T17:24:25;3.80;99.90
10905;DHT22;5505;51.450;9.254;2023-04-03T17:27:11;3.80;99.90
10905;DHT22;5505;51.450;9.254;2023-04-03T17:30:00;3.80;99.90
10905;DHT22;5505;51.450;9.254;2023-04-03T17:32:46;3.80;99.90
10905;DHT22;5505;51.450;9.254;2023-04-03T17:35:33;3.80;99.90
10905;DHT22;5505;51.450;9.254;2023-04-03T17:38:20;3.70;99.90
10905;DHT22;5505;51.450;9.254;2023-04-03T17:41:08;3.60;99.90
10905;DHT22;5505;51.450;9.254;2023-04-03T17:43:55;3.50;99.90
10905;DHT22;5505;51.450;9.254;2023-04-03T17:46:43;3.40;99.90
10905;DHT22;5505;51.450;9.254;2023-04-03T17:49:30;3.30;99.90
10905;DHT22;5505;51.450;9.254;2023-04-03T17:52:18;3.20;99.90
10905;DHT22;5505;51.450;9.254;2023-04-03T17:55:05;3.10;99.90
10905;DHT22;5505;51.450;9.254;2023-04-03T17:57:52;3.10;99.90
10905;DHT22;5505;51.450;9.254;2023-04-03T18:00:39;3.20;99.90
10905;DHT22;5505;51.450;9.254;2023-04-03T18:03:27;3.10;99.90
10905;DHT22;5505;51.450;9.254;2023-04-03T18:06:15;3.10;99.90
10905;DHT22;5505;51.450;9.254;2023-04-03T18:09:04;3.00;99.90
10905;DHT22;5505;51.450;9.254;2023-04-03T18:11:52;2.90;99.90
10905;DHT22;5505;51.450;9.254;2023-04-03T18:14:41;2.90;99.90
10905;DHT22;5505;51.450;9.254;2023-04-03T18:17:28;2.90;99.90
10905;DHT22;5505;51.450;9.254;2023-04-03T18:20:17;2.90;99.90
10905;DHT22;5505;51.450;9.254;2023-04-03T18:23:03;2.90;99.90
10905;DHT22;5505;51.450;9.254;2023-04-03T18:25:50;2.90;99.90
10905;DHT22;5505;51.450;9.254;2023-04-03T18:28:39;3.00;99.90